Terminal Aerodrome Forecast
Issued by NWS North Platte, NE

Home | Current Version | Previous Version | Graphics & Text | Print | Product List | Glossary On
Versions: 1 2 3 4 5 6 7 8 9 10 11 12 13 14 15 16
588
FTUS43 KLBF 201538 AAA
TAFVTN
TAF AMD
KVTN 201538Z 2016/2112 01014KT 2SM -RA OVC008
     FM201800 35013KT 5SM -RA OVC008
     FM202100 34012KT P6SM VCSH SCT010 BKN020
     FM210400 33005KT P6SM SCT030=

USA.gov is the U.S. government's official web portal to all federal, state and local government web resources and services.